createdAt,value
2023-04-28T00:02:23.276Z,92.20
2023-04-28T00:04:50.907Z,92.20
2023-04-28T00:07:18.405Z,92.20
2023-04-28T00:09:46.015Z,92.20
2023-04-28T00:12:13.139Z,92.20
2023-04-28T00:14:40.958Z,92.20
2023-04-28T00:17:09.683Z,92.20
2023-04-28T00:19:38.983Z,92.20
2023-04-28T00:22:06.880Z,92.20
2023-04-28T00:24:34.156Z,92.20
2023-04-28T00:27:01.754Z,92.20
2023-04-28T00:29:30.314Z,92.20
2023-04-28T00:31:57.594Z,92.20
2023-04-28T00:34:24.770Z,92.20
2023-04-28T00:36:52.095Z,92.20
2023-04-28T00:39:19.322Z,92.20
2023-04-28T00:41:49.194Z,92.20
2023-04-28T00:44:16.674Z,92.20
2023-04-28T00:46:45.581Z,92.20
2023-04-28T00:49:13.099Z,92.20
2023-04-28T00:51:40.395Z,92.20
2023-04-28T00:54:07.819Z,92.20
2023-04-28T00:56:35.281Z,92.20
2023-04-28T00:59:02.569Z,92.20
2023-04-28T01:01:29.929Z,92.20
2023-04-28T01:03:57.303Z,92.20
2023-04-28T01:06:24.910Z,92.20
2023-04-28T01:08:52.350Z,92.20
2023-04-28T01:11:19.837Z,92.20
2023-04-28T01:13:47.532Z,92.20
2023-04-28T01:16:14.769Z,92.20
2023-04-28T01:18:47.943Z,92.20
2023-04-28T01:21:15.476Z,92.20
2023-04-28T01:23:46.706Z,92.20
2023-04-28T01:26:13.969Z,92.20
2023-04-28T01:28:41.320Z,92.20
2023-04-28T01:31:08.512Z,92.20
2023-04-28T01:33:37.233Z,92.20
2023-04-28T01:36:04.973Z,92.20
2023-04-28T01:38:32.507Z,92.20
2023-04-28T01:40:59.972Z,92.20
2023-04-28T01:43:27.139Z,92.20
2023-04-28T01:45:54.322Z,92.20
2023-04-28T01:48:21.780Z,92.20
2023-04-28T01:50:49.291Z,92.20
2023-04-28T01:53:20.815Z,92.20
2023-04-28T01:55:48.146Z,92.20
2023-04-28T01:58:15.465Z,92.20
2023-04-28T02:00:42.584Z,92.20
2023-04-28T02:03:10.078Z,92.20
2023-04-28T02:05:38.330Z,92.20
2023-04-28T02:08:05.860Z,92.20
2023-04-28T02:10:33.423Z,92.20
2023-04-28T02:13:00.824Z,92.20
2023-04-28T02:15:28.035Z,92.20
2023-04-28T02:17:56.168Z,92.20
2023-04-28T02:20:23.777Z,92.20
2023-04-28T02:22:51.586Z,92.20
2023-04-28T02:25:19.029Z,92.20
2023-04-28T02:27:47.519Z,92.20
2023-04-28T02:30:14.817Z,92.20
2023-04-28T02:32:42.156Z,92.20
2023-04-28T02:35:09.715Z,92.20
2023-04-28T02:37:37.240Z,92.20
2023-04-28T02:40:04.751Z,92.20
2023-04-28T02:42:32.006Z,92.20
2023-04-28T02:44:59.225Z,92.20
2023-04-28T02:47:27.028Z,92.20
2023-04-28T02:49:54.374Z,92.20
2023-04-28T02:52:21.602Z,92.20
2023-04-28T02:54:49.453Z,92.20
2023-04-28T02:57:16.855Z,92.20
2023-04-28T02:59:44.422Z,92.20
2023-04-28T03:02:12.785Z,92.20
2023-04-28T03:04:40.071Z,92.20
2023-04-28T03:07:07.376Z,92.20
2023-04-28T03:09:35.081Z,92.20
2023-04-28T03:12:03.959Z,92.20
2023-04-28T03:14:31.156Z,92.20
2023-04-28T03:16:58.961Z,92.20
2023-04-28T03:19:27.602Z,92.20
2023-04-28T03:21:55.232Z,92.20
2023-04-28T03:24:23.079Z,92.20
2023-04-28T03:26:50.476Z,92.20
2023-04-28T03:29:17.770Z,92.20
2023-04-28T03:31:45.324Z,92.20
2023-04-28T03:34:12.828Z,92.20
2023-04-28T03:36:40.061Z,92.20
2023-04-28T03:39:07.305Z,92.20
2023-04-28T03:41:34.780Z,92.20
2023-04-28T03:44:02.081Z,92.20
2023-04-28T03:46:29.602Z,92.20
2023-04-28T03:48:57.424Z,92.20
2023-04-28T03:51:24.680Z,92.20
2023-04-28T03:53:52.026Z,92.20
2023-04-28T03:56:19.372Z,92.20
2023-04-28T03:58:47.076Z,92.20
2023-04-28T04:01:14.548Z,92.20
2023-04-28T04:03:42.279Z,92.20
2023-04-28T04:06:09.847Z,92.20
2023-04-28T04:08:37.256Z,92.20
2023-04-28T04:11:04.637Z,92.20
2023-04-28T04:13:32.266Z,92.20
2023-04-28T04:16:00.325Z,92.20
2023-04-28T04:18:27.706Z,92.20
2023-04-28T04:20:57.338Z,92.20
2023-04-28T04:23:25.631Z,92.20
2023-04-28T04:25:52.873Z,92.20
2023-04-28T04:28:20.102Z,92.20
2023-04-28T04:30:48.153Z,92.20
2023-04-28T04:33:15.364Z,92.20
2023-04-28T04:35:42.547Z,92.20
2023-04-28T04:38:09.854Z,92.20
2023-04-28T04:40:37.257Z,92.20
2023-04-28T04:43:04.417Z,92.20
2023-04-28T04:45:31.715Z,92.20
2023-04-28T04:47:59.498Z,92.20
2023-04-28T04:50:26.994Z,92.20
2023-04-28T04:52:56.849Z,92.20
2023-04-28T04:55:24.025Z,92.20
2023-04-28T04:57:52.632Z,92.20
2023-04-28T05:00:20.291Z,92.20
2023-04-28T05:02:48.054Z,92.20
2023-04-28T05:05:21.225Z,92.20
2023-04-28T05:07:49.580Z,92.20
2023-04-28T05:10:20.574Z,92.20
2023-04-28T05:12:49.139Z,92.20
2023-04-28T05:15:16.716Z,92.20
2023-04-28T05:17:44.007Z,92.20
2023-04-28T05:20:12.866Z,92.20
2023-04-28T05:22:40.316Z,92.20
2023-04-28T05:25:08.182Z,92.20
2023-04-28T05:27:39.932Z,92.20
2023-04-28T05:30:10.918Z,92.20
2023-04-28T05:32:39.125Z,92.20
2023-04-28T05:35:06.795Z,92.20
2023-04-28T05:37:34.162Z,92.20
2023-04-28T05:40:01.587Z,92.20
2023-04-28T05:42:28.886Z,92.20
2023-04-28T05:44:56.286Z,92.20
2023-04-28T05:47:23.722Z,92.20
2023-04-28T05:49:51.160Z,92.20
2023-04-28T05:52:18.323Z,92.20
2023-04-28T05:54:45.820Z,92.20
2023-04-28T05:57:13.308Z,92.20
2023-04-28T05:59:42.837Z,92.20
2023-04-28T06:02:11.197Z,92.20
2023-04-28T06:04:40.123Z,92.20
2023-04-28T06:07:08.444Z,92.20
2023-04-28T06:09:35.647Z,92.20
2023-04-28T06:12:04.311Z,92.20
2023-04-28T06:14:31.929Z,92.20
2023-04-28T06:16:59.141Z,92.20
2023-04-28T06:19:26.433Z,92.20
2023-04-28T06:21:54.115Z,92.20
2023-04-28T06:24:21.749Z,92.20
2023-04-28T06:26:49.188Z,92.10
2023-04-28T06:29:16.587Z,90.70
2023-04-28T06:31:44.517Z,90.40
2023-04-28T06:34:12.131Z,89.00
2023-04-28T06:36:39.543Z,89.20
2023-04-28T06:39:07.401Z,89.20
2023-04-28T06:41:34.735Z,88.70
2023-04-28T06:44:02.323Z,88.30
2023-04-28T06:46:30.425Z,87.10
2023-04-28T06:48:58.509Z,87.40
2023-04-28T06:51:27.062Z,86.30
2023-04-28T06:53:54.645Z,85.70
2023-04-28T06:56:22.527Z,85.70
2023-04-28T06:58:49.968Z,83.80
2023-04-28T07:01:17.701Z,83.20
2023-04-28T07:03:44.955Z,84.00
2023-04-28T07:06:13.128Z,83.30
2023-04-28T07:08:40.573Z,83.90
2023-04-28T07:11:07.904Z,83.10
2023-04-28T07:13:35.068Z,81.90
2023-04-28T07:16:02.632Z,80.90
2023-04-28T07:18:30.041Z,80.40
2023-04-28T07:20:57.393Z,79.10
2023-04-28T07:23:24.724Z,79.40
2023-04-28T07:25:52.242Z,79.50
2023-04-28T07:28:20.709Z,79.50
2023-04-28T07:30:48.109Z,79.70
2023-04-28T07:33:15.459Z,78.00
2023-04-28T07:35:43.048Z,77.70
2023-04-28T07:38:10.515Z,76.30
2023-04-28T07:40:38.156Z,75.20
2023-04-28T07:43:05.400Z,75.10
2023-04-28T07:45:32.762Z,75.40
2023-04-28T07:48:00.468Z,74.80
2023-04-28T07:50:27.885Z,73.90
2023-04-28T07:52:55.666Z,75.00
2023-04-28T07:55:22.995Z,73.90
2023-04-28T07:57:51.045Z,73.70
2023-04-28T08:00:20.047Z,72.70
2023-04-28T08:02:48.099Z,74.00
2023-04-28T08:05:17.362Z,73.10
2023-04-28T08:07:44.716Z,70.70
2023-04-28T08:10:15.820Z,71.20
2023-04-28T08:12:43.114Z,70.60
2023-04-28T08:15:11.150Z,72.80
2023-04-28T08:17:38.407Z,71.40
2023-04-28T08:20:07.253Z,72.10
2023-04-28T08:22:34.400Z,71.20
2023-04-28T08:25:01.529Z,69.10
2023-04-28T08:27:28.830Z,70.30
2023-04-28T08:29:56.243Z,69.30
2023-04-28T08:32:23.714Z,70.80
2023-04-28T08:34:51.127Z,70.00
2023-04-28T08:37:18.604Z,69.20
2023-04-28T08:39:46.105Z,67.10
2023-04-28T08:42:13.832Z,68.30
2023-04-28T08:44:41.429Z,65.60
2023-04-28T08:47:15.310Z,67.30
2023-04-28T08:49:44.517Z,66.70
2023-04-28T08:52:17.004Z,67.00
2023-04-28T08:54:45.202Z,67.60
2023-04-28T08:57:13.191Z,65.40
2023-04-28T08:59:42.313Z,65.00
2023-04-28T09:02:10.058Z,64.90
2023-04-28T09:04:37.890Z,65.90
2023-04-28T09:07:12.136Z,66.20
2023-04-28T09:09:41.739Z,64.90
2023-04-28T09:12:09.475Z,63.00
2023-04-28T09:14:38.976Z,63.60
2023-04-28T09:17:13.845Z,62.80
2023-04-28T09:19:44.980Z,64.00
2023-04-28T09:24:47.880Z,64.20
2023-04-28T09:27:15.869Z,61.70
2023-04-28T09:29:54.322Z,61.40
2023-04-28T09:32:23.848Z,60.70
2023-04-28T09:34:54.243Z,60.40
2023-04-28T09:37:24.016Z,61.90
2023-04-28T09:39:54.013Z,62.00
2023-04-28T09:42:41.108Z,60.10
2023-04-28T09:45:09.934Z,62.10
2023-04-28T09:47:39.409Z,62.10
2023-04-28T09:50:13.125Z,62.20
2023-04-28T09:52:42.632Z,61.20
2023-04-28T09:55:11.342Z,61.00
2023-04-28T09:57:40.226Z,60.10
2023-04-28T10:00:09.699Z,59.70
2023-04-28T10:05:12.386Z,56.70
2023-04-28T10:07:40.797Z,58.80
2023-04-28T10:10:08.613Z,57.50
2023-04-28T10:12:39.114Z,57.70
2023-04-28T10:15:09.250Z,55.90
2023-04-28T10:17:37.189Z,56.80
2023-04-28T10:20:05.528Z,58.20
2023-04-28T10:23:17.879Z,57.20
2023-04-28T10:25:50.808Z,56.90
2023-04-28T10:28:18.519Z,55.70
2023-04-28T10:31:09.518Z,56.10
2023-04-28T10:33:38.158Z,54.90
2023-04-28T10:36:06.641Z,58.10
2023-04-28T10:38:35.476Z,55.80
2023-04-28T10:41:03.659Z,56.20
2023-04-28T10:43:31.532Z,55.60
2023-04-28T10:46:02.179Z,58.10
2023-04-28T10:48:40.422Z,55.20
2023-04-28T10:51:08.185Z,55.50
2023-04-28T10:53:48.661Z,54.40
2023-04-28T10:56:17.014Z,54.50
2023-04-28T10:58:47.266Z,53.00
2023-04-28T11:01:31.088Z,54.30
2023-04-28T11:04:03.465Z,54.30
2023-04-28T11:06:36.134Z,53.90
2023-04-28T11:09:15.906Z,53.80
2023-04-28T11:12:07.276Z,54.50
2023-04-28T11:14:36.476Z,54.50
2023-04-28T11:17:18.886Z,53.60
2023-04-28T11:19:51.704Z,54.70
2023-04-28T11:22:20.916Z,55.80
2023-04-28T11:25:02.795Z,55.80
2023-04-28T11:27:34.752Z,53.90
2023-04-28T11:30:02.329Z,55.30
2023-04-28T11:32:32.055Z,54.40
2023-04-28T11:34:59.825Z,56.40
2023-04-28T11:37:27.501Z,56.60
2023-04-28T11:39:55.053Z,56.30
2023-04-28T11:42:22.387Z,55.70
2023-04-28T11:44:55.284Z,56.70
2023-04-28T11:47:35.301Z,57.30
2023-04-28T11:50:03.561Z,55.50
2023-04-28T11:52:30.872Z,55.70
2023-04-28T11:55:01.190Z,54.50
2023-04-28T11:57:29.253Z,54.10
2023-04-28T12:00:22.104Z,52.90
2023-04-28T12:02:49.904Z,53.40
2023-04-28T12:05:17.682Z,52.90
2023-04-28T12:07:46.027Z,51.70
2023-04-28T12:10:18.974Z,53.20
2023-04-28T12:12:52.630Z,56.50
2023-04-28T12:15:22.505Z,54.30
2023-04-28T12:17:51.255Z,56.00
2023-04-28T12:20:36.636Z,56.40
2023-04-28T12:23:04.218Z,57.30
2023-04-28T12:25:31.511Z,58.00
2023-04-28T12:28:03.003Z,59.20
2023-04-28T12:30:34.792Z,56.10
2023-04-28T12:33:02.507Z,58.30
2023-04-28T12:35:30.309Z,57.40
2023-04-28T12:37:59.086Z,59.20
2023-04-28T12:40:27.632Z,59.20
2023-04-28T12:42:57.119Z,58.10
2023-04-28T12:45:36.483Z,58.50
2023-04-28T12:48:06.050Z,58.40
2023-04-28T12:50:35.320Z,57.70
2023-04-28T12:53:07.533Z,57.60
2023-04-28T12:55:41.317Z,56.70
2023-04-28T12:58:29.214Z,56.30
2023-04-28T13:00:59.193Z,56.30
2023-04-28T13:03:30.413Z,56.60
2023-04-28T13:06:02.337Z,58.50
2023-04-28T13:08:34.460Z,57.20
2023-04-28T13:11:09.868Z,58.00
2023-04-28T13:13:48.563Z,57.70
2023-04-28T13:16:21.471Z,56.40
2023-04-28T13:18:53.215Z,57.50
2023-04-28T13:21:20.501Z,57.90
2023-04-28T13:23:47.972Z,57.50
2023-04-28T13:26:15.806Z,57.70
2023-04-28T13:28:43.256Z,58.70
2023-04-28T13:31:10.734Z,59.00
2023-04-28T13:33:38.024Z,59.40
2023-04-28T13:36:06.782Z,58.40
2023-04-28T13:38:34.715Z,58.70
2023-04-28T13:41:02.260Z,58.40
2023-04-28T13:43:31.288Z,57.80
2023-04-28T13:45:58.719Z,57.00
2023-04-28T13:48:28.032Z,57.60
2023-04-28T13:50:55.659Z,56.60
2023-04-28T13:53:22.986Z,57.10
2023-04-28T13:55:54.146Z,55.50
2023-04-28T13:58:23.330Z,55.10
2023-04-28T14:00:55.073Z,55.60
2023-04-28T14:03:25.116Z,57.30
2023-04-28T14:05:56.834Z,57.70
2023-04-28T14:08:27.122Z,57.60
2023-04-28T14:10:55.040Z,58.10
2023-04-28T14:13:22.320Z,59.40
2023-04-28T14:15:58.443Z,59.60
2023-04-28T14:18:27.012Z,58.60
2023-04-28T14:20:58.180Z,59.60
2023-04-28T14:23:28.953Z,59.40
2023-04-28T14:25:57.541Z,60.60
2023-04-28T14:28:24.749Z,60.90
2023-04-28T14:30:53.567Z,60.20
2023-04-28T14:33:21.069Z,60.40
2023-04-28T14:35:49.133Z,60.60
2023-04-28T14:38:16.468Z,59.70
2023-04-28T14:40:44.639Z,59.90
2023-04-28T14:43:11.884Z,60.60
2023-04-28T14:45:39.301Z,61.30
2023-04-28T14:48:08.132Z,60.90
2023-04-28T14:50:36.889Z,61.20
2023-04-28T14:53:07.300Z,61.50
2023-04-28T14:55:34.964Z,61.60
2023-04-28T14:58:03.085Z,62.40
2023-04-28T15:00:32.603Z,63.00
2023-04-28T15:02:59.853Z,63.30
2023-04-28T15:05:27.527Z,63.30
2023-04-28T15:07:55.229Z,62.70
2023-04-28T15:10:22.671Z,63.40
2023-04-28T15:12:49.967Z,62.20
2023-04-28T15:15:17.487Z,63.10
2023-04-28T15:17:45.546Z,63.80
2023-04-28T15:20:12.898Z,64.00
2023-04-28T15:22:41.383Z,63.70
2023-04-28T15:25:09.546Z,63.90
2023-04-28T15:27:36.953Z,63.80
2023-04-28T15:30:04.882Z,64.50
2023-04-28T15:32:32.671Z,64.80
2023-04-28T15:35:01.050Z,65.10
2023-04-28T15:37:52.082Z,65.30
2023-04-28T15:40:21.594Z,64.40
2023-04-28T15:42:49.635Z,65.10
2023-04-28T15:45:18.648Z,65.70
2023-04-28T15:47:47.956Z,65.50
2023-04-28T15:50:16.474Z,65.40
2023-04-28T15:52:47.473Z,65.30
2023-04-28T15:55:16.520Z,65.70
2023-04-28T15:57:44.835Z,65.70
2023-04-28T16:00:15.027Z,65.60
2023-04-28T16:02:45.072Z,65.30
2023-04-28T16:05:13.059Z,65.40
2023-04-28T16:07:41.329Z,65.30
2023-04-28T16:10:11.168Z,65.60
2023-04-28T16:12:40.476Z,65.20
2023-04-28T16:15:10.559Z,65.40
2023-04-28T16:17:38.805Z,65.40
2023-04-28T16:20:08.257Z,65.60
2023-04-28T16:22:36.932Z,65.30
2023-04-28T16:25:04.445Z,66.00
2023-04-28T16:27:32.840Z,66.90
2023-04-28T16:30:01.037Z,67.40
2023-04-28T16:32:29.130Z,67.10
2023-04-28T16:34:59.764Z,67.30
2023-04-28T16:37:27.199Z,67.90
2023-04-28T16:39:54.724Z,68.00
2023-04-28T16:42:22.823Z,67.80
2023-04-28T16:44:52.641Z,68.90
2023-04-28T16:47:20.907Z,68.20
2023-04-28T16:49:48.855Z,68.40
2023-04-28T16:52:17.006Z,68.00
2023-04-28T16:54:44.928Z,68.50
2023-04-28T16:57:12.370Z,68.70
2023-04-28T16:59:39.659Z,68.70
2023-04-28T17:02:07.213Z,69.00
2023-04-28T17:04:34.982Z,69.00
2023-04-28T17:07:06.138Z,69.20
2023-04-28T17:09:34.314Z,69.80
2023-04-28T17:12:01.542Z,69.80
2023-04-28T17:14:29.113Z,69.80
2023-04-28T17:16:56.857Z,69.70
2023-04-28T17:19:24.216Z,69.80
2023-04-28T17:21:53.277Z,69.60
2023-04-28T17:24:20.485Z,69.80
2023-04-28T17:26:48.171Z,69.70
2023-04-28T17:29:16.120Z,69.80
2023-04-28T17:31:43.507Z,70.10
2023-04-28T17:34:10.955Z,70.00
2023-04-28T17:36:38.268Z,69.90
2023-04-28T17:39:08.716Z,70.50
2023-04-28T17:41:37.419Z,70.40
2023-04-28T17:44:04.801Z,70.80
2023-04-28T17:46:32.847Z,71.30
2023-04-28T17:49:01.218Z,71.40
2023-04-28T17:51:28.920Z,71.60
2023-04-28T17:53:57.669Z,72.10
2023-04-28T17:56:25.427Z,72.50
2023-04-28T17:58:52.862Z,73.00
2023-04-28T18:01:20.102Z,73.10
2023-04-28T18:03:51.395Z,73.40
2023-04-28T18:06:22.472Z,73.40
2023-04-28T18:08:50.484Z,74.00
2023-04-28T18:11:28.391Z,74.20
2023-04-28T18:13:55.679Z,74.30
2023-04-28T18:16:23.248Z,74.80
2023-04-28T18:18:51.093Z,75.20
2023-04-28T18:21:19.308Z,75.50
2023-04-28T18:23:47.765Z,75.80
2023-04-28T18:26:15.149Z,76.20
2023-04-28T18:28:42.284Z,76.60
2023-04-28T18:31:09.677Z,76.70
2023-04-28T18:33:37.436Z,76.90
2023-04-28T18:36:14.261Z,77.20
2023-04-28T18:38:41.650Z,77.20
2023-04-28T18:41:18.949Z,77.60
2023-04-28T18:44:00.124Z,77.60
2023-04-28T18:46:29.704Z,77.80
2023-04-28T18:48:57.058Z,78.20
2023-04-28T18:51:24.702Z,78.60
2023-04-28T18:53:52.094Z,78.60
2023-04-28T18:56:21.172Z,78.80
2023-04-28T18:58:48.584Z,79.10
2023-04-28T19:01:17.360Z,79.30
2023-04-28T19:03:47.192Z,79.70
2023-04-28T19:06:15.765Z,79.90
2023-04-28T19:08:43.693Z,80.10
2023-04-28T19:11:11.324Z,80.40
2023-04-28T19:13:38.976Z,80.70
2023-04-28T19:16:06.716Z,80.70
2023-04-28T19:18:34.457Z,81.00
2023-04-28T19:21:05.656Z,81.20
2023-04-28T19:23:33.381Z,81.30
2023-04-28T19:26:01.122Z,81.50
2023-04-28T19:28:29.225Z,81.70
2023-04-28T19:30:57.749Z,81.80
2023-04-28T19:33:28.358Z,81.50
2023-04-28T19:35:55.994Z,81.80
2023-04-28T19:38:39.527Z,81.70
2023-04-28T19:41:07.570Z,81.90
2023-04-28T19:43:35.554Z,82.10
2023-04-28T19:46:03.762Z,81.90
2023-04-28T19:48:31.787Z,81.70
2023-04-28T19:51:00.268Z,81.70
2023-04-28T19:53:27.580Z,81.50
2023-04-28T19:55:56.580Z,81.60
2023-04-28T19:58:24.128Z,81.70
2023-04-28T20:00:51.411Z,81.80
2023-04-28T20:03:18.810Z,81.90
2023-04-28T20:05:46.363Z,81.70
2023-04-28T20:08:13.741Z,81.50
2023-04-28T20:10:41.131Z,81.50
2023-04-28T20:13:08.665Z,81.60
2023-04-28T20:15:35.986Z,81.80
2023-04-28T20:18:06.659Z,81.60
2023-04-28T20:20:33.898Z,81.70
2023-04-28T20:23:01.051Z,81.70
2023-04-28T20:25:28.731Z,81.80
2023-04-28T20:27:56.645Z,81.80
2023-04-28T20:30:24.203Z,82.20
2023-04-28T20:32:57.830Z,82.60
2023-04-28T20:35:25.258Z,82.40
2023-04-28T20:37:53.382Z,82.70
2023-04-28T20:40:29.893Z,82.90
2023-04-28T20:42:59.118Z,82.60
2023-04-28T20:45:39.577Z,82.60
2023-04-28T20:48:07.077Z,82.90
2023-04-28T20:50:38.426Z,83.00
2023-04-28T20:53:06.004Z,83.00
2023-04-28T20:55:33.870Z,83.30
2023-04-28T20:58:01.345Z,83.50
2023-04-28T21:00:29.089Z,83.60
2023-04-28T21:02:56.806Z,83.50
2023-04-28T21:05:24.674Z,83.60
2023-04-28T21:07:52.389Z,83.60
2023-04-28T21:10:21.328Z,83.60
2023-04-28T21:12:49.367Z,83.90
2023-04-28T21:15:16.832Z,83.90
2023-04-28T21:17:44.109Z,84.40
2023-04-28T21:20:12.019Z,84.70
2023-04-28T21:22:39.181Z,85.20
2023-04-28T21:25:07.345Z,85.10
2023-04-28T21:27:35.690Z,85.40
2023-04-28T21:30:03.130Z,85.60
2023-04-28T21:32:31.089Z,85.90
2023-04-28T21:34:58.532Z,86.10
2023-04-28T21:37:29.156Z,85.90
2023-04-28T21:39:58.273Z,86.00
2023-04-28T21:42:26.012Z,85.70
2023-04-28T21:44:53.264Z,85.60
2023-04-28T21:47:21.558Z,85.90
2023-04-28T21:49:49.162Z,86.20
2023-04-28T21:52:16.785Z,86.30
2023-04-28T21:54:44.176Z,86.50
2023-04-28T21:57:11.843Z,86.60
2023-04-28T21:59:39.506Z,86.70
2023-04-28T22:02:07.571Z,87.20
2023-04-28T22:04:35.605Z,87.30
2023-04-28T22:07:04.138Z,87.50
2023-04-28T22:09:33.484Z,87.30
2023-04-28T22:12:00.805Z,87.90
2023-04-28T22:14:40.285Z,87.80
2023-04-28T22:17:08.666Z,87.60
2023-04-28T22:19:36.246Z,87.80
2023-04-28T22:22:05.066Z,88.10
2023-04-28T22:24:42.241Z,88.30
2023-04-28T22:27:10.535Z,88.40
2023-04-28T22:29:37.920Z,88.80
2023-04-28T22:32:05.688Z,88.80
2023-04-28T22:34:33.038Z,88.70
2023-04-28T22:37:26.548Z,88.90
2023-04-28T22:40:05.353Z,89.10
2023-04-28T22:42:40.061Z,88.40
2023-04-28T22:45:08.894Z,89.00
2023-04-28T22:47:43.529Z,88.80
2023-04-28T22:50:11.642Z,89.10
2023-04-28T22:52:39.174Z,89.10
2023-04-28T22:55:06.792Z,89.10
2023-04-28T22:57:34.394Z,89.30
2023-04-28T23:00:02.383Z,89.20
2023-04-28T23:02:29.841Z,89.50
2023-04-28T23:04:57.302Z,89.90
2023-04-28T23:07:24.940Z,89.80
2023-04-28T23:09:52.533Z,89.90
2023-04-28T23:12:20.100Z,89.80
2023-04-28T23:14:47.486Z,89.60
2023-04-28T23:17:14.987Z,89.20
2023-04-28T23:19:42.630Z,89.20
2023-04-28T23:22:09.883Z,89.40
2023-04-28T23:24:38.266Z,89.70
2023-04-28T23:27:06.148Z,89.70
2023-04-28T23:29:33.746Z,89.80
2023-04-28T23:32:01.081Z,89.80
2023-04-28T23:34:28.821Z,89.80
2023-04-28T23:36:56.003Z,89.90
2023-04-28T23:39:23.213Z,89.80
2023-04-28T23:41:51.397Z,89.70
2023-04-28T23:44:18.635Z,89.60
2023-04-28T23:46:45.860Z,89.80
2023-04-28T23:49:13.956Z,90.00
2023-04-28T23:51:41.392Z,89.80
2023-04-28T23:54:09.823Z,89.40
2023-04-28T23:56:37.770Z,89.50
2023-04-28T23:59:05.877Z,89.40
